sensor_id;sensor_type;location;lat;lon;timestamp;temperature;humidity
46085;DHT22;31823;47.032;8.310;2023-07-24T00:01:45;18.30;99.90
46085;DHT22;31823;47.032;8.310;2023-07-24T00:04:10;18.30;99.90
46085;DHT22;31823;47.032;8.310;2023-07-24T00:06:36;18.30;99.90
46085;DHT22;31823;47.032;8.310;2023-07-24T00:09:01;18.30;99.90
46085;DHT22;31823;47.032;8.310;2023-07-24T00:11:27;18.30;99.90
46085;DHT22;31823;47.032;8.310;2023-07-24T00:13:52;18.30;99.90
46085;DHT22;31823;47.032;8.310;2023-07-24T00:16:18;18.30;99.90
46085;DHT22;31823;47.032;8.310;2023-07-24T00:18:44;18.20;99.90
46085;DHT22;31823;47.032;8.310;2023-07-24T00:21:09;18.10;99.90
46085;DHT22;31823;47.032;8.310;2023-07-24T00:23:36;18.10;99.90
46085;DHT22;31823;47.032;8.310;2023-07-24T00:26:01;18.10;99.90
46085;DHT22;31823;47.032;8.310;2023-07-24T00:28:27;18.00;99.90
46085;DHT22;31823;47.032;8.310;2023-07-24T00:30:52;17.90;99.90
46085;DHT22;31823;47.032;8.310;2023-07-24T00:33:18;18.00;99.90
46085;DHT22;31823;47.032;8.310;2023-07-24T00:35:43;17.90;99.90
46085;DHT22;31823;47.032;8.310;2023-07-24T00:38:09;17.80;99.90
46085;DHT22;31823;47.032;8.310;2023-07-24T00:40:34;17.80;99.90
46085;DHT22;31823;47.032;8.310;2023-07-24T00:43:00;17.90;99.90
46085;DHT22;31823;47.032;8.310;2023-07-24T00:45:25;18.00;99.90
46085;DHT22;31823;47.032;8.310;2023-07-24T00:47:51;18.00;99.90
46085;DHT22;31823;47.032;8.310;2023-07-24T00:50:18;18.10;99.90
46085;DHT22;31823;47.032;8.310;2023-07-24T00:52:44;18.20;99.90
46085;DHT22;31823;47.032;8.310;2023-07-24T00:55:11;18.10;99.90
46085;DHT22;31823;47.032;8.310;2023-07-24T00:57:37;17.90;99.90
46085;DHT22;31823;47.032;8.310;2023-07-24T01:00:03;18.10;99.90
46085;DHT22;31823;47.032;8.310;2023-07-24T01:02:30;18.10;99.90
46085;DHT22;31823;47.032;8.310;2023-07-24T01:04:55;18.10;99.90
46085;DHT22;31823;47.032;8.310;2023-07-24T01:07:21;18.20;99.90
46085;DHT22;31823;47.032;8.310;2023-07-24T01:09:47;18.10;99.90
46085;DHT22;31823;47.032;8.310;2023-07-24T01:12:35;18.20;99.90
46085;DHT22;31823;47.032;8.310;2023-07-24T01:15:26;18.20;99.90
46085;DHT22;31823;47.032;8.310;2023-07-24T01:17:59;18.10;99.90
46085;DHT22;31823;47.032;8.310;2023-07-24T01:20:26;18.10;99.90
46085;DHT22;31823;47.032;8.310;2023-07-24T01:23:23;17.90;99.90
46085;DHT22;31823;47.032;8.310;2023-07-24T01:28:21;17.90;99.90
46085;DHT22;31823;47.032;8.310;2023-07-24T01:30:46;17.80;99.90
46085;DHT22;31823;47.032;8.310;2023-07-24T01:33:12;17.80;99.90
46085;DHT22;31823;47.032;8.310;2023-07-24T01:35:40;17.80;99.90
46085;DHT22;31823;47.032;8.310;2023-07-24T01:38:09;17.80;99.90
46085;DHT22;31823;47.032;8.310;2023-07-24T01:40:35;17.80;99.90
46085;DHT22;31823;47.032;8.310;2023-07-24T01:43:00;17.70;99.90
46085;DHT22;31823;47.032;8.310;2023-07-24T01:45:26;17.70;99.90
46085;DHT22;31823;47.032;8.310;2023-07-24T01:47:51;17.60;99.90
46085;DHT22;31823;47.032;8.310;2023-07-24T01:50:17;17.60;99.90
46085;DHT22;31823;47.032;8.310;2023-07-24T01:52:43;17.60;99.90
46085;DHT22;31823;47.032;8.310;2023-07-24T01:55:09;17.70;99.90
46085;DHT22;31823;47.032;8.310;2023-07-24T01:57:35;17.70;99.90
46085;DHT22;31823;47.032;8.310;2023-07-24T02:00:01;17.80;99.90
46085;DHT22;31823;47.032;8.310;2023-07-24T02:02:26;17.80;99.90
46085;DHT22;31823;47.032;8.310;2023-07-24T02:04:52;17.70;99.90
46085;DHT22;31823;47.032;8.310;2023-07-24T02:07:17;17.70;99.90
46085;DHT22;31823;47.032;8.310;2023-07-24T02:09:43;17.70;99.90
46085;DHT22;31823;47.032;8.310;2023-07-24T02:12:08;17.70;99.90
46085;DHT22;31823;47.032;8.310;2023-07-24T02:14:34;17.70;99.90
46085;DHT22;31823;47.032;8.310;2023-07-24T02:16:59;17.70;99.90
46085;DHT22;31823;47.032;8.310;2023-07-24T02:19:25;17.80;99.90
46085;DHT22;31823;47.032;8.310;2023-07-24T02:21:50;17.70;99.90
46085;DHT22;31823;47.032;8.310;2023-07-24T02:24:16;17.60;99.90
46085;DHT22;31823;47.032;8.310;2023-07-24T02:26:41;17.60;99.90
46085;DHT22;31823;47.032;8.310;2023-07-24T02:29:07;17.70;99.90
46085;DHT22;31823;47.032;8.310;2023-07-24T02:31:33;17.80;99.90
46085;DHT22;31823;47.032;8.310;2023-07-24T02:33:59;17.80;99.90
46085;DHT22;31823;47.032;8.310;2023-07-24T02:36:24;17.70;99.90
46085;DHT22;31823;47.032;8.310;2023-07-24T02:38:50;17.70;99.90
46085;DHT22;31823;47.032;8.310;2023-07-24T02:41:16;17.70;99.90
46085;DHT22;31823;47.032;8.310;2023-07-24T02:43:41;17.50;99.90
46085;DHT22;31823;47.032;8.310;2023-07-24T02:46:07;17.50;99.90
46085;DHT22;31823;47.032;8.310;2023-07-24T02:48:32;17.40;99.90
46085;DHT22;31823;47.032;8.310;2023-07-24T02:50:58;17.60;99.90
46085;DHT22;31823;47.032;8.310;2023-07-24T02:53:23;17.50;99.90
46085;DHT22;31823;47.032;8.310;2023-07-24T02:55:49;17.40;99.90
46085;DHT22;31823;47.032;8.310;2023-07-24T02:58:14;17.50;99.90
46085;DHT22;31823;47.032;8.310;2023-07-24T03:00:40;17.50;99.90
46085;DHT22;31823;47.032;8.310;2023-07-24T03:03:06;17.60;99.90
46085;DHT22;31823;47.032;8.310;2023-07-24T03:05:34;17.60;99.90
46085;DHT22;31823;47.032;8.310;2023-07-24T03:08:00;17.60;99.90
46085;DHT22;31823;47.032;8.310;2023-07-24T03:10:25;17.60;99.90
46085;DHT22;31823;47.032;8.310;2023-07-24T03:12:51;17.50;99.90
46085;DHT22;31823;47.032;8.310;2023-07-24T03:15:16;17.50;99.90
46085;DHT22;31823;47.032;8.310;2023-07-24T03:17:42;17.50;99.90
46085;DHT22;31823;47.032;8.310;2023-07-24T03:20:09;17.60;99.90
46085;DHT22;31823;47.032;8.310;2023-07-24T03:22:35;17.50;99.90
46085;DHT22;31823;47.032;8.310;2023-07-24T03:25:00;17.40;99.90
46085;DHT22;31823;47.032;8.310;2023-07-24T03:27:26;17.40;99.90
46085;DHT22;31823;47.032;8.310;2023-07-24T03:29:51;17.30;99.90
46085;DHT22;31823;47.032;8.310;2023-07-24T03:32:17;17.40;99.90
46085;DHT22;31823;47.032;8.310;2023-07-24T03:34:42;17.50;99.90
46085;DHT22;31823;47.032;8.310;2023-07-24T03:37:08;17.50;99.90
46085;DHT22;31823;47.032;8.310;2023-07-24T03:39:33;17.50;99.90
46085;DHT22;31823;47.032;8.310;2023-07-24T03:41:59;17.50;99.90
46085;DHT22;31823;47.032;8.310;2023-07-24T03:44:24;17.50;99.90
46085;DHT22;31823;47.032;8.310;2023-07-24T03:46:50;17.50;99.90
46085;DHT22;31823;47.032;8.310;2023-07-24T03:49:15;17.40;99.90
46085;DHT22;31823;47.032;8.310;2023-07-24T03:51:41;17.50;99.90
46085;DHT22;31823;47.032;8.310;2023-07-24T03:54:07;17.50;99.90
46085;DHT22;31823;47.032;8.310;2023-07-24T03:56:32;17.50;99.90
46085;DHT22;31823;47.032;8.310;2023-07-24T03:58:58;17.50;99.90
46085;DHT22;31823;47.032;8.310;2023-07-24T04:01:23;17.60;99.90
46085;DHT22;31823;47.032;8.310;2023-07-24T04:03:49;17.70;99.90
46085;DHT22;31823;47.032;8.310;2023-07-24T04:06:14;17.90;99.90
46085;DHT22;31823;47.032;8.310;2023-07-24T04:08:40;17.80;99.90
46085;DHT22;31823;47.032;8.310;2023-07-24T04:11:05;17.90;99.90
46085;DHT22;31823;47.032;8.310;2023-07-24T04:13:31;17.90;99.90
46085;DHT22;31823;47.032;8.310;2023-07-24T04:15:57;17.90;99.90
46085;DHT22;31823;47.032;8.310;2023-07-24T04:18:24;18.00;99.90
46085;DHT22;31823;47.032;8.310;2023-07-24T04:20:50;18.00;99.90
46085;DHT22;31823;47.032;8.310;2023-07-24T04:23:15;18.20;99.90
46085;DHT22;31823;47.032;8.310;2023-07-24T04:25:41;18.10;99.90
46085;DHT22;31823;47.032;8.310;2023-07-24T04:28:07;18.10;99.90
46085;DHT22;31823;47.032;8.310;2023-07-24T04:30:33;18.20;99.90
46085;DHT22;31823;47.032;8.310;2023-07-24T04:32:58;18.20;99.90
46085;DHT22;31823;47.032;8.310;2023-07-24T04:35:24;19.10;99.90
46085;DHT22;31823;47.032;8.310;2023-07-24T04:37:49;20.60;99.90
46085;DHT22;31823;47.032;8.310;2023-07-24T04:40:16;20.90;99.90
46085;DHT22;31823;47.032;8.310;2023-07-24T04:42:42;20.50;99.90
46085;DHT22;31823;47.032;8.310;2023-07-24T04:45:08;20.20;99.90
46085;DHT22;31823;47.032;8.310;2023-07-24T04:47:33;20.20;99.90
46085;DHT22;31823;47.032;8.310;2023-07-24T04:49:59;20.10;99.90
46085;DHT22;31823;47.032;8.310;2023-07-24T04:52:25;20.10;99.90
46085;DHT22;31823;47.032;8.310;2023-07-24T04:54:50;20.00;99.90
46085;DHT22;31823;47.032;8.310;2023-07-24T04:57:16;19.50;99.90
46085;DHT22;31823;47.032;8.310;2023-07-24T04:59:41;18.90;99.90
46085;DHT22;31823;47.032;8.310;2023-07-24T05:02:07;18.50;99.90
46085;DHT22;31823;47.032;8.310;2023-07-24T05:04:32;18.50;99.90
46085;DHT22;31823;47.032;8.310;2023-07-24T05:06:58;18.70;99.90
46085;DHT22;31823;47.032;8.310;2023-07-24T05:09:23;18.80;99.90
46085;DHT22;31823;47.032;8.310;2023-07-24T05:11:49;18.80;99.90
46085;DHT22;31823;47.032;8.310;2023-07-24T05:14:14;18.80;99.90
46085;DHT22;31823;47.032;8.310;2023-07-24T05:16:40;18.60;99.90
46085;DHT22;31823;47.032;8.310;2023-07-24T05:19:05;18.60;99.90
46085;DHT22;31823;47.032;8.310;2023-07-24T05:21:31;18.60;99.90
46085;DHT22;31823;47.032;8.310;2023-07-24T05:23:57;18.40;99.90
46085;DHT22;31823;47.032;8.310;2023-07-24T05:26:22;18.20;99.90
46085;DHT22;31823;47.032;8.310;2023-07-24T05:28:48;18.10;99.90
46085;DHT22;31823;47.032;8.310;2023-07-24T05:31:13;18.00;99.90
46085;DHT22;31823;47.032;8.310;2023-07-24T05:33:39;17.90;99.90
46085;DHT22;31823;47.032;8.310;2023-07-24T05:36:05;18.00;99.90
46085;DHT22;31823;47.032;8.310;2023-07-24T05:38:30;18.10;99.90
46085;DHT22;31823;47.032;8.310;2023-07-24T05:40:57;18.20;99.90
46085;DHT22;31823;47.032;8.310;2023-07-24T05:43:23;18.10;99.90
46085;DHT22;31823;47.032;8.310;2023-07-24T05:45:53;18.00;99.90
46085;DHT22;31823;47.032;8.310;2023-07-24T05:48:18;17.90;99.90
46085;DHT22;31823;47.032;8.310;2023-07-24T05:50:44;17.80;99.90
46085;DHT22;31823;47.032;8.310;2023-07-24T05:53:10;17.90;99.90
46085;DHT22;31823;47.032;8.310;2023-07-24T05:55:35;17.90;99.90
46085;DHT22;31823;47.032;8.310;2023-07-24T05:58:01;18.10;99.90
46085;DHT22;31823;47.032;8.310;2023-07-24T06:00:26;18.20;99.90
46085;DHT22;31823;47.032;8.310;2023-07-24T06:02:53;18.30;99.90
46085;DHT22;31823;47.032;8.310;2023-07-24T06:05:18;18.30;99.90
46085;DHT22;31823;47.032;8.310;2023-07-24T06:07:45;18.40;99.90
46085;DHT22;31823;47.032;8.310;2023-07-24T06:10:11;18.50;99.90
46085;DHT22;31823;47.032;8.310;2023-07-24T06:12:36;18.40;99.90
46085;DHT22;31823;47.032;8.310;2023-07-24T06:15:02;18.40;99.90
46085;DHT22;31823;47.032;8.310;2023-07-24T06:17:28;18.50;99.90
46085;DHT22;31823;47.032;8.310;2023-07-24T06:19:54;18.70;99.90
46085;DHT22;31823;47.032;8.310;2023-07-24T06:22:19;18.80;99.90
46085;DHT22;31823;47.032;8.310;2023-07-24T06:24:45;18.80;99.90
46085;DHT22;31823;47.032;8.310;2023-07-24T06:27:10;18.70;99.90
46085;DHT22;31823;47.032;8.310;2023-07-24T06:29:36;18.70;99.90
46085;DHT22;31823;47.032;8.310;2023-07-24T06:32:02;18.70;99.90
46085;DHT22;31823;47.032;8.310;2023-07-24T06:34:28;18.70;99.90
46085;DHT22;31823;47.032;8.310;2023-07-24T06:36:55;18.60;99.90
46085;DHT22;31823;47.032;8.310;2023-07-24T06:39:20;18.60;99.90
46085;DHT22;31823;47.032;8.310;2023-07-24T06:41:46;18.50;99.90
46085;DHT22;31823;47.032;8.310;2023-07-24T06:44:11;18.50;99.90
46085;DHT22;31823;47.032;8.310;2023-07-24T06:46:37;18.60;99.90
46085;DHT22;31823;47.032;8.310;2023-07-24T06:49:03;18.60;99.90
46085;DHT22;31823;47.032;8.310;2023-07-24T06:51:28;18.90;99.90
46085;DHT22;31823;47.032;8.310;2023-07-24T06:53:54;19.00;99.90
46085;DHT22;31823;47.032;8.310;2023-07-24T06:56:19;19.00;99.90
46085;DHT22;31823;47.032;8.310;2023-07-24T06:58:45;19.00;99.90
46085;DHT22;31823;47.032;8.310;2023-07-24T07:01:10;19.00;99.90
46085;DHT22;31823;47.032;8.310;2023-07-24T07:03:36;18.90;99.90
46085;DHT22;31823;47.032;8.310;2023-07-24T07:06:02;18.90;99.90
46085;DHT22;31823;47.032;8.310;2023-07-24T07:08:29;18.80;99.90
46085;DHT22;31823;47.032;8.310;2023-07-24T07:10:57;18.70;99.90
46085;DHT22;31823;47.032;8.310;2023-07-24T07:13:22;18.70;99.90
46085;DHT22;31823;47.032;8.310;2023-07-24T07:15:48;18.70;99.90
46085;DHT22;31823;47.032;8.310;2023-07-24T07:18:13;18.70;99.90
46085;DHT22;31823;47.032;8.310;2023-07-24T07:20:44;18.60;99.90
46085;DHT22;31823;47.032;8.310;2023-07-24T07:23:09;18.60;99.90
46085;DHT22;31823;47.032;8.310;2023-07-24T07:25:35;18.50;99.90
46085;DHT22;31823;47.032;8.310;2023-07-24T07:28:00;18.50;99.90
46085;DHT22;31823;47.032;8.310;2023-07-24T07:30:26;18.50;99.90
46085;DHT22;31823;47.032;8.310;2023-07-24T07:32:51;18.30;99.90
46085;DHT22;31823;47.032;8.310;2023-07-24T07:35:17;18.30;99.90
46085;DHT22;31823;47.032;8.310;2023-07-24T07:37:42;18.20;99.90
46085;DHT22;31823;47.032;8.310;2023-07-24T07:40:09;18.20;99.90
46085;DHT22;31823;47.032;8.310;2023-07-24T07:42:34;18.30;99.90
46085;DHT22;31823;47.032;8.310;2023-07-24T07:45:00;18.50;99.90
46085;DHT22;31823;47.032;8.310;2023-07-24T07:47:25;18.80;99.90
46085;DHT22;31823;47.032;8.310;2023-07-24T07:49:51;18.70;99.90
46085;DHT22;31823;47.032;8.310;2023-07-24T07:52:17;18.70;99.90
46085;DHT22;31823;47.032;8.310;2023-07-24T07:54:46;18.70;99.90
46085;DHT22;31823;47.032;8.310;2023-07-24T07:57:12;18.80;99.90
46085;DHT22;31823;47.032;8.310;2023-07-24T07:59:37;18.90;99.90
46085;DHT22;31823;47.032;8.310;2023-07-24T08:02:03;19.00;99.90
46085;DHT22;31823;47.032;8.310;2023-07-24T08:04:29;19.10;99.90
46085;DHT22;31823;47.032;8.310;2023-07-24T08:06:54;19.30;99.90
46085;DHT22;31823;47.032;8.310;2023-07-24T08:09:20;19.40;99.90
46085;DHT22;31823;47.032;8.310;2023-07-24T08:11:47;19.50;99.90
46085;DHT22;31823;47.032;8.310;2023-07-24T08:14:12;19.60;99.90
46085;DHT22;31823;47.032;8.310;2023-07-24T08:16:38;19.90;99.90
46085;DHT22;31823;47.032;8.310;2023-07-24T08:19:04;20.10;99.90
46085;DHT22;31823;47.032;8.310;2023-07-24T08:21:29;20.20;99.90
46085;DHT22;31823;47.032;8.310;2023-07-24T08:23:55;20.30;99.90
46085;DHT22;31823;47.032;8.310;2023-07-24T08:26:22;20.10;99.90
46085;DHT22;31823;47.032;8.310;2023-07-24T08:28:50;20.00;99.90
46085;DHT22;31823;47.032;8.310;2023-07-24T08:31:15;20.10;99.90
46085;DHT22;31823;47.032;8.310;2023-07-24T08:33:41;20.30;99.90
46085;DHT22;31823;47.032;8.310;2023-07-24T08:36:07;20.50;99.90
46085;DHT22;31823;47.032;8.310;2023-07-24T08:38:34;20.30;99.90
46085;DHT22;31823;47.032;8.310;2023-07-24T08:41:05;20.60;99.90
46085;DHT22;31823;47.032;8.310;2023-07-24T08:43:31;20.60;99.90
46085;DHT22;31823;47.032;8.310;2023-07-24T08:45:58;20.90;99.90
46085;DHT22;31823;47.032;8.310;2023-07-24T08:48:35;21.30;99.90
46085;DHT22;31823;47.032;8.310;2023-07-24T08:51:02;21.50;99.90
46085;DHT22;31823;47.032;8.310;2023-07-24T08:53:29;21.50;99.90
46085;DHT22;31823;47.032;8.310;2023-07-24T08:55:56;21.60;99.90
46085;DHT22;31823;47.032;8.310;2023-07-24T08:58:25;21.40;99.90
46085;DHT22;31823;47.032;8.310;2023-07-24T09:00:51;21.40;99.90
46085;DHT22;31823;47.032;8.310;2023-07-24T09:03:18;21.70;99.90
46085;DHT22;31823;47.032;8.310;2023-07-24T09:05:44;21.50;99.90
46085;DHT22;31823;47.032;8.310;2023-07-24T09:08:10;21.70;99.90
46085;DHT22;31823;47.032;8.310;2023-07-24T09:10:35;22.00;99.90
46085;DHT22;31823;47.032;8.310;2023-07-24T09:13:01;22.00;99.90
46085;DHT22;31823;47.032;8.310;2023-07-24T09:15:38;21.90;99.90
46085;DHT22;31823;47.032;8.310;2023-07-24T09:18:04;22.00;99.90
46085;DHT22;31823;47.032;8.310;2023-07-24T09:20:41;21.90;99.90
46085;DHT22;31823;47.032;8.310;2023-07-24T09:23:07;22.00;99.90
46085;DHT22;31823;47.032;8.310;2023-07-24T09:25:35;22.10;99.90
46085;DHT22;31823;47.032;8.310;2023-07-24T09:28:01;22.20;99.90
46085;DHT22;31823;47.032;8.310;2023-07-24T09:30:33;22.20;99.90
46085;DHT22;31823;47.032;8.310;2023-07-24T09:32:59;22.20;99.90
46085;DHT22;31823;47.032;8.310;2023-07-24T09:35:24;22.20;99.90
46085;DHT22;31823;47.032;8.310;2023-07-24T09:38:05;22.20;99.90
46085;DHT22;31823;47.032;8.310;2023-07-24T09:40:52;22.20;99.90
46085;DHT22;31823;47.032;8.310;2023-07-24T09:43:25;22.30;99.90
46085;DHT22;31823;47.032;8.310;2023-07-24T09:45:52;22.60;99.90
46085;DHT22;31823;47.032;8.310;2023-07-24T09:48:20;22.70;99.90
46085;DHT22;31823;47.032;8.310;2023-07-24T09:50:47;22.80;99.90
46085;DHT22;31823;47.032;8.310;2023-07-24T09:53:37;23.10;99.90
46085;DHT22;31823;47.032;8.310;2023-07-24T09:56:04;23.40;99.90
46085;DHT22;31823;47.032;8.310;2023-07-24T09:58:32;23.50;99.90
46085;DHT22;31823;47.032;8.310;2023-07-24T10:01:01;23.10;99.90
46085;DHT22;31823;47.032;8.310;2023-07-24T10:03:28;23.00;99.90
46085;DHT22;31823;47.032;8.310;2023-07-24T10:05:54;22.90;99.90
46085;DHT22;31823;47.032;8.310;2023-07-24T10:08:20;22.70;99.90
46085;DHT22;31823;47.032;8.310;2023-07-24T10:10:46;22.70;99.90
46085;DHT22;31823;47.032;8.310;2023-07-24T10:13:13;22.80;99.90
46085;DHT22;31823;47.032;8.310;2023-07-24T10:15:44;22.50;99.90
46085;DHT22;31823;47.032;8.310;2023-07-24T10:18:10;22.50;99.90
46085;DHT22;31823;47.032;8.310;2023-07-24T10:20:37;22.40;99.90
46085;DHT22;31823;47.032;8.310;2023-07-24T10:23:06;22.50;99.90
46085;DHT22;31823;47.032;8.310;2023-07-24T10:25:33;22.50;99.90
46085;DHT22;31823;47.032;8.310;2023-07-24T10:28:06;22.70;99.90
46085;DHT22;31823;47.032;8.310;2023-07-24T10:30:40;22.80;99.90
46085;DHT22;31823;47.032;8.310;2023-07-24T10:33:07;23.00;99.90
46085;DHT22;31823;47.032;8.310;2023-07-24T10:35:38;23.10;99.90
46085;DHT22;31823;47.032;8.310;2023-07-24T10:38:04;23.00;99.90
46085;DHT22;31823;47.032;8.310;2023-07-24T10:40:29;22.90;99.90
46085;DHT22;31823;47.032;8.310;2023-07-24T10:43:18;22.80;99.90
46085;DHT22;31823;47.032;8.310;2023-07-24T10:45:50;22.60;99.90
46085;DHT22;31823;47.032;8.310;2023-07-24T10:48:17;22.60;99.90
46085;DHT22;31823;47.032;8.310;2023-07-24T10:50:47;22.60;99.90
46085;DHT22;31823;47.032;8.310;2023-07-24T10:53:15;22.60;99.90
46085;DHT22;31823;47.032;8.310;2023-07-24T10:55:42;22.70;99.90
46085;DHT22;31823;47.032;8.310;2023-07-24T10:58:08;22.80;99.90
46085;DHT22;31823;47.032;8.310;2023-07-24T11:00:34;22.80;99.90
46085;DHT22;31823;47.032;8.310;2023-07-24T11:03:00;22.60;99.90
46085;DHT22;31823;47.032;8.310;2023-07-24T11:05:26;22.60;99.90
46085;DHT22;31823;47.032;8.310;2023-07-24T11:07:51;22.60;99.90
46085;DHT22;31823;47.032;8.310;2023-07-24T11:10:18;22.40;99.90
46085;DHT22;31823;47.032;8.310;2023-07-24T11:12:44;21.90;99.90
46085;DHT22;31823;47.032;8.310;2023-07-24T11:15:11;22.00;99.90
46085;DHT22;31823;47.032;8.310;2023-07-24T11:17:38;21.70;99.90
46085;DHT22;31823;47.032;8.310;2023-07-24T11:20:10;21.70;99.90
46085;DHT22;31823;47.032;8.310;2023-07-24T11:22:38;21.60;99.90
46085;DHT22;31823;47.032;8.310;2023-07-24T11:25:04;21.70;99.90
46085;DHT22;31823;47.032;8.310;2023-07-24T11:27:32;21.80;99.90
46085;DHT22;31823;47.032;8.310;2023-07-24T11:29:57;21.70;99.90
46085;DHT22;31823;47.032;8.310;2023-07-24T11:32:23;21.60;99.90
46085;DHT22;31823;47.032;8.310;2023-07-24T11:34:49;21.50;99.90
46085;DHT22;31823;47.032;8.310;2023-07-24T11:37:15;21.70;99.90
46085;DHT22;31823;47.032;8.310;2023-07-24T11:39:41;21.60;99.90
46085;DHT22;31823;47.032;8.310;2023-07-24T11:42:07;21.50;99.90
46085;DHT22;31823;47.032;8.310;2023-07-24T11:44:33;21.30;99.90
46085;DHT22;31823;47.032;8.310;2023-07-24T11:47:05;21.00;99.90
46085;DHT22;31823;47.032;8.310;2023-07-24T11:49:31;21.10;99.90
46085;DHT22;31823;47.032;8.310;2023-07-24T11:52:02;21.30;99.90
46085;DHT22;31823;47.032;8.310;2023-07-24T11:54:28;21.50;99.90
46085;DHT22;31823;47.032;8.310;2023-07-24T11:56:54;22.00;99.90
46085;DHT22;31823;47.032;8.310;2023-07-24T11:59:19;23.00;99.90
46085;DHT22;31823;47.032;8.310;2023-07-24T12:01:48;23.90;99.90
46085;DHT22;31823;47.032;8.310;2023-07-24T12:04:15;24.80;99.90
46085;DHT22;31823;47.032;8.310;2023-07-24T12:06:41;25.10;99.90
46085;DHT22;31823;47.032;8.310;2023-07-24T12:09:07;25.50;99.90
46085;DHT22;31823;47.032;8.310;2023-07-24T12:11:34;25.70;99.90
46085;DHT22;31823;47.032;8.310;2023-07-24T12:14:04;25.60;99.90
46085;DHT22;31823;47.032;8.310;2023-07-24T12:16:29;25.40;99.90
46085;DHT22;31823;47.032;8.310;2023-07-24T12:18:56;25.70;99.90
46085;DHT22;31823;47.032;8.310;2023-07-24T12:21:21;26.10;99.90
46085;DHT22;31823;47.032;8.310;2023-07-24T12:23:47;26.00;99.90
46085;DHT22;31823;47.032;8.310;2023-07-24T12:26:12;26.30;99.90
46085;DHT22;31823;47.032;8.310;2023-07-24T12:28:38;26.00;99.90
46085;DHT22;31823;47.032;8.310;2023-07-24T12:31:03;26.50;99.90
46085;DHT22;31823;47.032;8.310;2023-07-24T12:33:29;26.90;99.90
46085;DHT22;31823;47.032;8.310;2023-07-24T12:35:55;26.40;99.90
46085;DHT22;31823;47.032;8.310;2023-07-24T12:38:20;26.50;99.90
46085;DHT22;31823;47.032;8.310;2023-07-24T12:40:46;26.50;99.90
46085;DHT22;31823;47.032;8.310;2023-07-24T12:43:11;26.90;99.90
46085;DHT22;31823;47.032;8.310;2023-07-24T12:45:37;26.90;99.90
46085;DHT22;31823;47.032;8.310;2023-07-24T12:48:03;26.70;99.90
46085;DHT22;31823;47.032;8.310;2023-07-24T12:50:28;26.40;99.90
46085;DHT22;31823;47.032;8.310;2023-07-24T12:52:55;26.50;99.90
46085;DHT22;31823;47.032;8.310;2023-07-24T12:55:21;26.50;99.90
46085;DHT22;31823;47.032;8.310;2023-07-24T12:57:47;26.50;99.90
46085;DHT22;31823;47.032;8.310;2023-07-24T13:00:12;26.80;99.90
46085;DHT22;31823;47.032;8.310;2023-07-24T13:02:38;26.80;99.90
46085;DHT22;31823;47.032;8.310;2023-07-24T13:05:04;26.80;99.90
46085;DHT22;31823;47.032;8.310;2023-07-24T13:07:29;27.00;99.90
46085;DHT22;31823;47.032;8.310;2023-07-24T13:09:55;27.30;99.90
46085;DHT22;31823;47.032;8.310;2023-07-24T13:12:21;27.50;99.90
46085;DHT22;31823;47.032;8.310;2023-07-24T13:14:46;27.10;99.90
46085;DHT22;31823;47.032;8.310;2023-07-24T13:17:12;26.30;99.90
46085;DHT22;31823;47.032;8.310;2023-07-24T13:19:37;25.70;99.90
46085;DHT22;31823;47.032;8.310;2023-07-24T13:22:03;25.90;99.90
46085;DHT22;31823;47.032;8.310;2023-07-24T13:24:29;25.50;99.90
46085;DHT22;31823;47.032;8.310;2023-07-24T13:26:55;25.30;99.90
46085;DHT22;31823;47.032;8.310;2023-07-24T13:29:20;25.00;99.90
46085;DHT22;31823;47.032;8.310;2023-07-24T13:31:46;24.40;99.90
46085;DHT22;31823;47.032;8.310;2023-07-24T13:34:11;24.30;99.90
46085;DHT22;31823;47.032;8.310;2023-07-24T13:36:37;23.90;99.90
46085;DHT22;31823;47.032;8.310;2023-07-24T13:39:03;24.20;99.90
46085;DHT22;31823;47.032;8.310;2023-07-24T13:41:28;24.20;99.90
46085;DHT22;31823;47.032;8.310;2023-07-24T13:43:55;23.50;99.90
46085;DHT22;31823;47.032;8.310;2023-07-24T13:46:20;23.20;99.90
46085;DHT22;31823;47.032;8.310;2023-07-24T13:48:46;22.70;99.90
46085;DHT22;31823;47.032;8.310;2023-07-24T13:51:11;22.60;99.90
46085;DHT22;31823;47.032;8.310;2023-07-24T13:53:37;22.50;99.90
46085;DHT22;31823;47.032;8.310;2023-07-24T13:56:03;22.10;99.90
46085;DHT22;31823;47.032;8.310;2023-07-24T13:58:28;22.00;99.90
46085;DHT22;31823;47.032;8.310;2023-07-24T14:00:54;21.70;99.90
46085;DHT22;31823;47.032;8.310;2023-07-24T14:03:20;21.70;99.90
46085;DHT22;31823;47.032;8.310;2023-07-24T14:05:45;21.50;99.90
46085;DHT22;31823;47.032;8.310;2023-07-24T14:08:11;21.40;99.90
46085;DHT22;31823;47.032;8.310;2023-07-24T14:10:37;21.20;99.90
46085;DHT22;31823;47.032;8.310;2023-07-24T14:13:03;21.00;99.90
46085;DHT22;31823;47.032;8.310;2023-07-24T14:15:29;20.90;99.90
46085;DHT22;31823;47.032;8.310;2023-07-24T14:17:55;20.80;99.90
46085;DHT22;31823;47.032;8.310;2023-07-24T14:20:20;20.70;99.90
46085;DHT22;31823;47.032;8.310;2023-07-24T14:22:46;20.60;99.90
46085;DHT22;31823;47.032;8.310;2023-07-24T14:25:11;20.60;99.90
46085;DHT22;31823;47.032;8.310;2023-07-24T14:27:37;20.80;99.90
46085;DHT22;31823;47.032;8.310;2023-07-24T14:30:03;20.80;99.90
46085;DHT22;31823;47.032;8.310;2023-07-24T14:32:28;20.80;99.90
46085;DHT22;31823;47.032;8.310;2023-07-24T14:34:54;20.90;99.90
46085;DHT22;31823;47.032;8.310;2023-07-24T14:37:20;20.90;99.90
46085;DHT22;31823;47.032;8.310;2023-07-24T14:39:45;21.10;99.90
46085;DHT22;31823;47.032;8.310;2023-07-24T14:42:11;21.20;99.90
46085;DHT22;31823;47.032;8.310;2023-07-24T14:44:37;21.10;99.90
46085;DHT22;31823;47.032;8.310;2023-07-24T14:47:03;21.20;99.90
46085;DHT22;31823;47.032;8.310;2023-07-24T14:49:28;21.10;99.90
46085;DHT22;31823;47.032;8.310;2023-07-24T14:51:54;20.80;99.90
46085;DHT22;31823;47.032;8.310;2023-07-24T14:54:19;20.90;99.90
46085;DHT22;31823;47.032;8.310;2023-07-24T14:56:45;20.90;99.90
46085;DHT22;31823;47.032;8.310;2023-07-24T14:59:10;20.90;99.90
46085;DHT22;31823;47.032;8.310;2023-07-24T15:01:36;21.00;99.90
46085;DHT22;31823;47.032;8.310;2023-07-24T15:04:01;20.80;99.90
46085;DHT22;31823;47.032;8.310;2023-07-24T15:06:27;20.70;99.90
46085;DHT22;31823;47.032;8.310;2023-07-24T15:08:52;20.60;99.90
46085;DHT22;31823;47.032;8.310;2023-07-24T15:11:19;20.60;99.90
46085;DHT22;31823;47.032;8.310;2023-07-24T15:13:45;20.40;99.90
46085;DHT22;31823;47.032;8.310;2023-07-24T15:16:10;20.20;99.90
46085;DHT22;31823;47.032;8.310;2023-07-24T15:18:36;20.00;99.90
46085;DHT22;31823;47.032;8.310;2023-07-24T15:21:01;20.20;99.90
46085;DHT22;31823;47.032;8.310;2023-07-24T15:23:27;20.20;99.90
46085;DHT22;31823;47.032;8.310;2023-07-24T15:25:53;20.40;99.90
46085;DHT22;31823;47.032;8.310;2023-07-24T15:28:18;20.40;99.90